sensor_id;sensor_type;location;lat;lon;timestamp;P1;durP1;ratioP1;P2;durP2;ratioP2
4375;SDS011;2202;50.866;12.750;2022-07-23T00:00:10;10.23;;;8.27;;
4375;SDS011;2202;50.866;12.750;2022-07-23T00:02:38;11.93;;;8.87;;
4375;SDS011;2202;50.866;12.750;2022-07-23T00:05:05;13.80;;;9.20;;
4375;SDS011;2202;50.866;12.750;2022-07-23T00:07:32;10.17;;;8.57;;
4375;SDS011;2202;50.866;12.750;2022-07-23T00:09:59;10.10;;;8.80;;
4375;SDS011;2202;50.866;12.750;2022-07-23T00:12:27;11.80;;;9.33;;
4375;SDS011;2202;50.866;12.750;2022-07-23T00:14:54;12.70;;;8.60;;
4375;SDS011;2202;50.866;12.750;2022-07-23T00:17:21;11.83;;;8.87;;
4375;SDS011;2202;50.866;12.750;2022-07-23T00:19:48;11.83;;;8.27;;
4375;SDS011;2202;50.866;12.750;2022-07-23T00:22:14;11.80;;;8.47;;
4375;SDS011;2202;50.866;12.750;2022-07-23T00:24:41;11.13;;;8.23;;
4375;SDS011;2202;50.866;12.750;2022-07-23T00:27:08;13.87;;;8.87;;
4375;SDS011;2202;50.866;12.750;2022-07-23T00:29:36;10.93;;;8.33;;
4375;SDS011;2202;50.866;12.750;2022-07-23T00:32:04;12.93;;;9.73;;
4375;SDS011;2202;50.866;12.750;2022-07-23T00:34:31;12.80;;;9.27;;
4375;SDS011;2202;50.866;12.750;2022-07-23T00:36:57;9.67;;;8.40;;
4375;SDS011;2202;50.866;12.750;2022-07-23T00:39:24;12.00;;;8.90;;
4375;SDS011;2202;50.866;12.750;2022-07-23T00:41:51;12.00;;;8.93;;
4375;SDS011;2202;50.866;12.750;2022-07-23T00:44:19;15.20;;;8.70;;
4375;SDS011;2202;50.866;12.750;2022-07-23T00:46:48;14.50;;;9.17;;
4375;SDS011;2202;50.866;12.750;2022-07-23T00:49:18;10.50;;;8.83;;
4375;SDS011;2202;50.866;12.750;2022-07-23T00:51:46;11.30;;;8.40;;
4375;SDS011;2202;50.866;12.750;2022-07-23T00:54:13;10.57;;;8.33;;
4375;SDS011;2202;50.866;12.750;2022-07-23T00:56:41;12.07;;;9.50;;
4375;SDS011;2202;50.866;12.750;2022-07-23T00:59:08;11.07;;;9.33;;
4375;SDS011;2202;50.866;12.750;2022-07-23T01:01:36;11.97;;;9.23;;
4375;SDS011;2202;50.866;12.750;2022-07-23T01:04:05;11.07;;;8.43;;
4375;SDS011;2202;50.866;12.750;2022-07-23T01:06:33;11.70;;;8.77;;
4375;SDS011;2202;50.866;12.750;2022-07-23T01:09:02;10.47;;;8.40;;
4375;SDS011;2202;50.866;12.750;2022-07-23T01:11:31;13.60;;;8.90;;
4375;SDS011;2202;50.866;12.750;2022-07-23T01:13:58;11.20;;;8.80;;
4375;SDS011;2202;50.866;12.750;2022-07-23T01:16:33;13.30;;;8.23;;
4375;SDS011;2202;50.866;12.750;2022-07-23T01:19:00;11.27;;;8.00;;
4375;SDS011;2202;50.866;12.750;2022-07-23T01:21:28;11.63;;;8.47;;
4375;SDS011;2202;50.866;12.750;2022-07-23T01:23:57;13.97;;;8.60;;
4375;SDS011;2202;50.866;12.750;2022-07-23T01:26:24;9.90;;;7.70;;
4375;SDS011;2202;50.866;12.750;2022-07-23T01:28:50;13.13;;;8.50;;
4375;SDS011;2202;50.866;12.750;2022-07-23T01:31:17;12.20;;;9.37;;
4375;SDS011;2202;50.866;12.750;2022-07-23T01:33:45;12.00;;;7.97;;
4375;SDS011;2202;50.866;12.750;2022-07-23T01:36:11;14.60;;;8.63;;
4375;SDS011;2202;50.866;12.750;2022-07-23T01:38:38;10.87;;;8.33;;
4375;SDS011;2202;50.866;12.750;2022-07-23T01:41:07;12.53;;;9.27;;
4375;SDS011;2202;50.866;12.750;2022-07-23T01:43:33;10.63;;;7.70;;
4375;SDS011;2202;50.866;12.750;2022-07-23T01:46:00;11.80;;;9.07;;
4375;SDS011;2202;50.866;12.750;2022-07-23T01:48:27;11.07;;;7.80;;
4375;SDS011;2202;50.866;12.750;2022-07-23T01:50:54;9.67;;;7.30;;
4375;SDS011;2202;50.866;12.750;2022-07-23T01:53:21;9.40;;;7.67;;
4375;SDS011;2202;50.866;12.750;2022-07-23T01:55:48;9.90;;;7.83;;
4375;SDS011;2202;50.866;12.750;2022-07-23T01:58:16;11.93;;;8.67;;
4375;SDS011;2202;50.866;12.750;2022-07-23T02:00:43;13.17;;;9.13;;
4375;SDS011;2202;50.866;12.750;2022-07-23T02:03:10;14.93;;;7.87;;
4375;SDS011;2202;50.866;12.750;2022-07-23T02:05:37;12.53;;;8.63;;
4375;SDS011;2202;50.866;12.750;2022-07-23T02:08:03;11.10;;;8.13;;
4375;SDS011;2202;50.866;12.750;2022-07-23T02:10:31;11.50;;;8.90;;
4375;SDS011;2202;50.866;12.750;2022-07-23T02:12:57;11.03;;;7.97;;
4375;SDS011;2202;50.866;12.750;2022-07-23T02:15:26;13.27;;;8.10;;
4375;SDS011;2202;50.866;12.750;2022-07-23T02:17:53;11.80;;;8.43;;
4375;SDS011;2202;50.866;12.750;2022-07-23T02:20:20;16.63;;;9.27;;
4375;SDS011;2202;50.866;12.750;2022-07-23T02:22:48;9.60;;;6.90;;
4375;SDS011;2202;50.866;12.750;2022-07-23T02:25:14;13.00;;;8.20;;
4375;SDS011;2202;50.866;12.750;2022-07-23T02:27:42;10.93;;;7.83;;
4375;SDS011;2202;50.866;12.750;2022-07-23T02:30:09;9.90;;;7.37;;
4375;SDS011;2202;50.866;12.750;2022-07-23T02:32:38;10.70;;;8.13;;
4375;SDS011;2202;50.866;12.750;2022-07-23T02:35:06;10.90;;;8.30;;
4375;SDS011;2202;50.866;12.750;2022-07-23T02:37:33;10.47;;;8.07;;
4375;SDS011;2202;50.866;12.750;2022-07-23T02:40:00;11.03;;;7.23;;
4375;SDS011;2202;50.866;12.750;2022-07-23T02:42:27;11.03;;;7.90;;
4375;SDS011;2202;50.866;12.750;2022-07-23T02:44:54;10.70;;;8.57;;
4375;SDS011;2202;50.866;12.750;2022-07-23T02:47:21;11.27;;;8.97;;
4375;SDS011;2202;50.866;12.750;2022-07-23T02:49:49;15.73;;;9.17;;
4375;SDS011;2202;50.866;12.750;2022-07-23T02:52:16;11.13;;;8.40;;
4375;SDS011;2202;50.866;12.750;2022-07-23T02:54:42;11.70;;;8.60;;
4375;SDS011;2202;50.866;12.750;2022-07-23T02:57:09;10.40;;;8.20;;
4375;SDS011;2202;50.866;12.750;2022-07-23T02:59:36;13.87;;;8.70;;
4375;SDS011;2202;50.866;12.750;2022-07-23T03:02:03;12.47;;;7.97;;
4375;SDS011;2202;50.866;12.750;2022-07-23T03:04:30;11.00;;;9.20;;
4375;SDS011;2202;50.866;12.750;2022-07-23T03:06:58;11.13;;;8.70;;
4375;SDS011;2202;50.866;12.750;2022-07-23T03:09:25;11.00;;;8.20;;
4375;SDS011;2202;50.866;12.750;2022-07-23T03:11:52;11.47;;;8.80;;
4375;SDS011;2202;50.866;12.750;2022-07-23T03:14:19;11.30;;;8.17;;
4375;SDS011;2202;50.866;12.750;2022-07-23T03:16:45;10.33;;;8.00;;
4375;SDS011;2202;50.866;12.750;2022-07-23T03:19:14;10.70;;;8.17;;
4375;SDS011;2202;50.866;12.750;2022-07-23T03:21:41;11.20;;;7.97;;
4375;SDS011;2202;50.866;12.750;2022-07-23T03:24:09;13.60;;;10.70;;
4375;SDS011;2202;50.866;12.750;2022-07-23T03:26:36;13.20;;;9.90;;
4375;SDS011;2202;50.866;12.750;2022-07-23T03:29:04;13.90;;;9.50;;
4375;SDS011;2202;50.866;12.750;2022-07-23T03:31:31;13.37;;;9.80;;
4375;SDS011;2202;50.866;12.750;2022-07-23T03:33:58;11.57;;;9.87;;
4375;SDS011;2202;50.866;12.750;2022-07-23T03:36:25;13.80;;;9.50;;
4375;SDS011;2202;50.866;12.750;2022-07-23T03:38:52;16.57;;;12.10;;
4375;SDS011;2202;50.866;12.750;2022-07-23T03:41:20;15.70;;;11.80;;
4375;SDS011;2202;50.866;12.750;2022-07-23T03:43:47;14.70;;;10.93;;
4375;SDS011;2202;50.866;12.750;2022-07-23T03:46:14;13.17;;;10.90;;
4375;SDS011;2202;50.866;12.750;2022-07-23T03:48:41;15.67;;;11.47;;
4375;SDS011;2202;50.866;12.750;2022-07-23T03:51:08;17.50;;;12.50;;
4375;SDS011;2202;50.866;12.750;2022-07-23T03:53:35;15.80;;;11.60;;
4375;SDS011;2202;50.866;12.750;2022-07-23T03:56:02;15.43;;;10.70;;
4375;SDS011;2202;50.866;12.750;2022-07-23T03:58:30;14.10;;;11.20;;
4375;SDS011;2202;50.866;12.750;2022-07-23T04:00:57;15.27;;;10.50;;
4375;SDS011;2202;50.866;12.750;2022-07-23T04:03:23;17.00;;;12.00;;
4375;SDS011;2202;50.866;12.750;2022-07-23T04:05:50;14.60;;;12.33;;
4375;SDS011;2202;50.866;12.750;2022-07-23T04:08:17;16.60;;;12.23;;
4375;SDS011;2202;50.866;12.750;2022-07-23T04:10:44;18.33;;;13.23;;
4375;SDS011;2202;50.866;12.750;2022-07-23T04:13:11;14.30;;;11.70;;
4375;SDS011;2202;50.866;12.750;2022-07-23T04:15:39;14.10;;;11.37;;
4375;SDS011;2202;50.866;12.750;2022-07-23T04:18:06;16.77;;;12.20;;
4375;SDS011;2202;50.866;12.750;2022-07-23T04:20:33;16.50;;;12.27;;
4375;SDS011;2202;50.866;12.750;2022-07-23T04:23:00;14.90;;;12.70;;
4375;SDS011;2202;50.866;12.750;2022-07-23T04:25:27;16.70;;;12.77;;
4375;SDS011;2202;50.866;12.750;2022-07-23T04:27:54;15.13;;;11.20;;
4375;SDS011;2202;50.866;12.750;2022-07-23T04:30:21;18.30;;;12.73;;
4375;SDS011;2202;50.866;12.750;2022-07-23T04:32:49;15.50;;;12.33;;
4375;SDS011;2202;50.866;12.750;2022-07-23T04:35:16;13.20;;;10.53;;
4375;SDS011;2202;50.866;12.750;2022-07-23T04:37:42;14.97;;;11.47;;
4375;SDS011;2202;50.866;12.750;2022-07-23T04:40:10;14.37;;;11.67;;
4375;SDS011;2202;50.866;12.750;2022-07-23T04:42:37;15.80;;;11.50;;
4375;SDS011;2202;50.866;12.750;2022-07-23T04:45:05;17.53;;;12.70;;
4375;SDS011;2202;50.866;12.750;2022-07-23T04:47:33;15.60;;;12.33;;
4375;SDS011;2202;50.866;12.750;2022-07-23T04:50:01;18.13;;;13.43;;
4375;SDS011;2202;50.866;12.750;2022-07-23T04:52:28;17.07;;;13.67;;
4375;SDS011;2202;50.866;12.750;2022-07-23T04:54:55;18.53;;;13.70;;
4375;SDS011;2202;50.866;12.750;2022-07-23T04:57:22;17.40;;;12.60;;
4375;SDS011;2202;50.866;12.750;2022-07-23T04:59:48;21.10;;;13.63;;
4375;SDS011;2202;50.866;12.750;2022-07-23T05:02:15;19.77;;;12.90;;
4375;SDS011;2202;50.866;12.750;2022-07-23T05:04:42;18.07;;;13.90;;
4375;SDS011;2202;50.866;12.750;2022-07-23T05:07:11;17.60;;;14.50;;
4375;SDS011;2202;50.866;12.750;2022-07-23T05:09:38;17.43;;;13.00;;
4375;SDS011;2202;50.866;12.750;2022-07-23T05:12:05;21.87;;;14.30;;
4375;SDS011;2202;50.866;12.750;2022-07-23T05:14:32;22.77;;;14.70;;
4375;SDS011;2202;50.866;12.750;2022-07-23T05:16:59;18.07;;;12.90;;
4375;SDS011;2202;50.866;12.750;2022-07-23T05:19:26;17.77;;;14.20;;
4375;SDS011;2202;50.866;12.750;2022-07-23T05:21:53;16.00;;;13.53;;
4375;SDS011;2202;50.866;12.750;2022-07-23T05:24:21;17.40;;;12.63;;
4375;SDS011;2202;50.866;12.750;2022-07-23T05:26:48;18.20;;;13.03;;
4375;SDS011;2202;50.866;12.750;2022-07-23T05:29:15;18.20;;;13.10;;
4375;SDS011;2202;50.866;12.750;2022-07-23T05:31:42;19.57;;;13.10;;
4375;SDS011;2202;50.866;12.750;2022-07-23T05:34:08;20.77;;;12.73;;
4375;SDS011;2202;50.866;12.750;2022-07-23T05:36:35;17.97;;;12.57;;
4375;SDS011;2202;50.866;12.750;2022-07-23T05:39:02;16.13;;;11.77;;
4375;SDS011;2202;50.866;12.750;2022-07-23T05:41:31;18.70;;;11.97;;
4375;SDS011;2202;50.866;12.750;2022-07-23T05:43:58;19.70;;;12.73;;
4375;SDS011;2202;50.866;12.750;2022-07-23T05:46:25;18.27;;;11.93;;
4375;SDS011;2202;50.866;12.750;2022-07-23T05:48:51;16.83;;;11.83;;
4375;SDS011;2202;50.866;12.750;2022-07-23T05:51:19;18.87;;;14.03;;
4375;SDS011;2202;50.866;12.750;2022-07-23T05:53:46;17.80;;;12.30;;
4375;SDS011;2202;50.866;12.750;2022-07-23T05:56:14;15.83;;;11.00;;
4375;SDS011;2202;50.866;12.750;2022-07-23T05:58:42;16.67;;;11.77;;
4375;SDS011;2202;50.866;12.750;2022-07-23T06:01:10;17.60;;;11.80;;
4375;SDS011;2202;50.866;12.750;2022-07-23T06:03:37;15.90;;;11.20;;
4375;SDS011;2202;50.866;12.750;2022-07-23T06:06:05;18.73;;;11.33;;
4375;SDS011;2202;50.866;12.750;2022-07-23T06:08:32;20.67;;;10.20;;
4375;SDS011;2202;50.866;12.750;2022-07-23T06:10:59;16.97;;;10.07;;
4375;SDS011;2202;50.866;12.750;2022-07-23T06:13:26;13.80;;;10.17;;
4375;SDS011;2202;50.866;12.750;2022-07-23T06:15:54;15.23;;;10.10;;
4375;SDS011;2202;50.866;12.750;2022-07-23T06:18:21;14.53;;;9.80;;
4375;SDS011;2202;50.866;12.750;2022-07-23T06:20:48;13.80;;;10.00;;
4375;SDS011;2202;50.866;12.750;2022-07-23T06:23:15;14.27;;;10.13;;
4375;SDS011;2202;50.866;12.750;2022-07-23T06:25:41;13.00;;;9.73;;
4375;SDS011;2202;50.866;12.750;2022-07-23T06:28:09;13.90;;;9.30;;
4375;SDS011;2202;50.866;12.750;2022-07-23T06:30:36;13.30;;;9.77;;
4375;SDS011;2202;50.866;12.750;2022-07-23T06:33:04;13.63;;;9.63;;
4375;SDS011;2202;50.866;12.750;2022-07-23T06:35:31;13.70;;;9.20;;
4375;SDS011;2202;50.866;12.750;2022-07-23T06:37:58;15.10;;;8.90;;
4375;SDS011;2202;50.866;12.750;2022-07-23T06:40:25;16.67;;;10.57;;
4375;SDS011;2202;50.866;12.750;2022-07-23T06:42:52;13.90;;;9.50;;
4375;SDS011;2202;50.866;12.750;2022-07-23T06:45:19;12.57;;;10.37;;
4375;SDS011;2202;50.866;12.750;2022-07-23T06:47:46;13.93;;;10.83;;
4375;SDS011;2202;50.866;12.750;2022-07-23T06:50:14;15.60;;;10.10;;
4375;SDS011;2202;50.866;12.750;2022-07-23T06:52:41;13.13;;;10.17;;
4375;SDS011;2202;50.866;12.750;2022-07-23T06:55:08;13.83;;;9.80;;
4375;SDS011;2202;50.866;12.750;2022-07-23T06:57:35;12.73;;;10.20;;
4375;SDS011;2202;50.866;12.750;2022-07-23T07:00:03;13.33;;;9.60;;
4375;SDS011;2202;50.866;12.750;2022-07-23T07:02:31;11.07;;;8.57;;
4375;SDS011;2202;50.866;12.750;2022-07-23T07:04:57;14.43;;;9.70;;
4375;SDS011;2202;50.866;12.750;2022-07-23T07:07:26;12.17;;;8.70;;
4375;SDS011;2202;50.866;12.750;2022-07-23T07:09:53;14.40;;;8.60;;
4375;SDS011;2202;50.866;12.750;2022-07-23T07:12:20;13.83;;;10.13;;
4375;SDS011;2202;50.866;12.750;2022-07-23T07:14:46;10.70;;;8.30;;
4375;SDS011;2202;50.866;12.750;2022-07-23T07:17:13;13.40;;;9.50;;
4375;SDS011;2202;50.866;12.750;2022-07-23T07:19:41;17.70;;;9.67;;
4375;SDS011;2202;50.866;12.750;2022-07-23T07:22:07;11.97;;;8.30;;
4375;SDS011;2202;50.866;12.750;2022-07-23T07:24:36;10.20;;;8.37;;
4375;SDS011;2202;50.866;12.750;2022-07-23T07:27:03;14.57;;;10.20;;
4375;SDS011;2202;50.866;12.750;2022-07-23T07:29:29;17.13;;;9.30;;
4375;SDS011;2202;50.866;12.750;2022-07-23T07:31:56;16.07;;;9.00;;
4375;SDS011;2202;50.866;12.750;2022-07-23T07:34:23;10.37;;;8.50;;
4375;SDS011;2202;50.866;12.750;2022-07-23T07:36:50;12.13;;;7.80;;
4375;SDS011;2202;50.866;12.750;2022-07-23T07:39:17;10.20;;;7.67;;
4375;SDS011;2202;50.866;12.750;2022-07-23T07:41:45;11.10;;;9.13;;
4375;SDS011;2202;50.866;12.750;2022-07-23T07:44:12;9.83;;;8.73;;
4375;SDS011;2202;50.866;12.750;2022-07-23T07:46:39;10.70;;;8.20;;
4375;SDS011;2202;50.866;12.750;2022-07-23T07:49:06;14.30;;;8.67;;
4375;SDS011;2202;50.866;12.750;2022-07-23T07:51:33;10.97;;;8.73;;
4375;SDS011;2202;50.866;12.750;2022-07-23T07:54:00;9.73;;;7.07;;
4375;SDS011;2202;50.866;12.750;2022-07-23T07:56:27;10.17;;;8.40;;
4375;SDS011;2202;50.866;12.750;2022-07-23T07:58:55;10.47;;;8.70;;
4375;SDS011;2202;50.866;12.750;2022-07-23T08:01:23;15.13;;;9.67;;
4375;SDS011;2202;50.866;12.750;2022-07-23T08:03:50;13.60;;;9.23;;
4375;SDS011;2202;50.866;12.750;2022-07-23T08:06:17;11.47;;;7.97;;
4375;SDS011;2202;50.866;12.750;2022-07-23T08:08:44;10.60;;;9.07;;
4375;SDS011;2202;50.866;12.750;2022-07-23T08:11:10;11.10;;;8.83;;
4375;SDS011;2202;50.866;12.750;2022-07-23T08:13:37;12.70;;;8.37;;
4375;SDS011;2202;50.866;12.750;2022-07-23T08:16:06;12.97;;;8.73;;
4375;SDS011;2202;50.866;12.750;2022-07-23T08:18:33;11.80;;;9.03;;
4375;SDS011;2202;50.866;12.750;2022-07-23T08:20:59;10.33;;;8.47;;
4375;SDS011;2202;50.866;12.750;2022-07-23T08:23:26;10.03;;;8.30;;
4375;SDS011;2202;50.866;12.750;2022-07-23T08:25:53;14.03;;;8.70;;
4375;SDS011;2202;50.866;12.750;2022-07-23T08:28:21;15.47;;;9.87;;
4375;SDS011;2202;50.866;12.750;2022-07-23T08:30:49;17.60;;;10.97;;
4375;SDS011;2202;50.866;12.750;2022-07-23T08:33:18;10.80;;;8.97;;
4375;SDS011;2202;50.866;12.750;2022-07-23T08:35:46;14.80;;;8.40;;
4375;SDS011;2202;50.866;12.750;2022-07-23T08:38:15;11.50;;;9.50;;
4375;SDS011;2202;50.866;12.750;2022-07-23T08:40:44;10.20;;;8.10;;
4375;SDS011;2202;50.866;12.750;2022-07-23T08:43:12;9.43;;;7.83;;
4375;SDS011;2202;50.866;12.750;2022-07-23T08:45:41;13.63;;;9.07;;
4375;SDS011;2202;50.866;12.750;2022-07-23T08:48:10;11.00;;;7.93;;
4375;SDS011;2202;50.866;12.750;2022-07-23T08:50:42;11.70;;;8.37;;
4375;SDS011;2202;50.866;12.750;2022-07-23T08:53:10;9.37;;;8.33;;
4375;SDS011;2202;50.866;12.750;2022-07-23T08:55:37;8.77;;;7.30;;
4375;SDS011;2202;50.866;12.750;2022-07-23T08:58:04;10.43;;;8.23;;
4375;SDS011;2202;50.866;12.750;2022-07-23T09:00:31;10.90;;;8.87;;
4375;SDS011;2202;50.866;12.750;2022-07-23T09:02:58;11.10;;;9.23;;
4375;SDS011;2202;50.866;12.750;2022-07-23T09:05:25;10.07;;;9.07;;
4375;SDS011;2202;50.866;12.750;2022-07-23T09:08:10;10.83;;;9.20;;
4375;SDS011;2202;50.866;12.750;2022-07-23T09:10:44;19.70;;;17.63;;
4375;SDS011;2202;50.866;12.750;2022-07-23T09:13:23;10.27;;;8.43;;
4375;SDS011;2202;50.866;12.750;2022-07-23T09:15:52;10.07;;;8.93;;
4375;SDS011;2202;50.866;12.750;2022-07-23T09:18:27;11.93;;;8.80;;
4375;SDS011;2202;50.866;12.750;2022-07-23T09:21:09;10.27;;;8.77;;
4375;SDS011;2202;50.866;12.750;2022-07-23T09:23:40;10.40;;;9.27;;
4375;SDS011;2202;50.866;12.750;2022-07-23T09:29:02;12.97;;;9.87;;
4375;SDS011;2202;50.866;12.750;2022-07-23T09:31:32;13.03;;;9.00;;
4375;SDS011;2202;50.866;12.750;2022-07-23T09:34:08;11.87;;;9.03;;
4375;SDS011;2202;50.866;12.750;2022-07-23T09:36:36;12.70;;;8.57;;
4375;SDS011;2202;50.866;12.750;2022-07-23T09:39:05;9.60;;;8.60;;
4375;SDS011;2202;50.866;12.750;2022-07-23T09:41:40;11.03;;;9.20;;
4375;SDS011;2202;50.866;12.750;2022-07-23T09:44:09;16.93;;;10.40;;
4375;SDS011;2202;50.866;12.750;2022-07-23T09:46:38;13.87;;;9.57;;
4375;SDS011;2202;50.866;12.750;2022-07-23T09:49:10;14.93;;;10.03;;
4375;SDS011;2202;50.866;12.750;2022-07-23T09:51:43;11.03;;;8.93;;
4375;SDS011;2202;50.866;12.750;2022-07-23T09:54:26;11.53;;;8.70;;
4375;SDS011;2202;50.866;12.750;2022-07-23T09:56:58;11.20;;;9.60;;
4375;SDS011;2202;50.866;12.750;2022-07-23T09:59:28;15.20;;;9.47;;
4375;SDS011;2202;50.866;12.750;2022-07-23T10:01:59;13.63;;;9.23;;
4375;SDS011;2202;50.866;12.750;2022-07-23T10:04:26;11.90;;;9.17;;
4375;SDS011;2202;50.866;12.750;2022-07-23T10:06:55;11.97;;;9.30;;
4375;SDS011;2202;50.866;12.750;2022-07-23T10:09:26;16.13;;;11.07;;
4375;SDS011;2202;50.866;12.750;2022-07-23T10:11:55;14.50;;;10.47;;
4375;SDS011;2202;50.866;12.750;2022-07-23T10:14:27;13.23;;;9.90;;
4375;SDS011;2202;50.866;12.750;2022-07-23T10:16:56;10.43;;;9.33;;
4375;SDS011;2202;50.866;12.750;2022-07-23T10:19:24;10.87;;;9.73;;
4375;SDS011;2202;50.866;12.750;2022-07-23T10:21:52;14.97;;;10.27;;
4375;SDS011;2202;50.866;12.750;2022-07-23T10:24:25;15.43;;;10.93;;
4375;SDS011;2202;50.866;12.750;2022-07-23T10:27:10;14.10;;;10.47;;
4375;SDS011;2202;50.866;12.750;2022-07-23T10:29:50;11.60;;;9.73;;
4375;SDS011;2202;50.866;12.750;2022-07-23T10:32:26;13.67;;;11.07;;
4375;SDS011;2202;50.866;12.750;2022-07-23T10:35:03;14.50;;;10.10;;
4375;SDS011;2202;50.866;12.750;2022-07-23T10:37:36;16.27;;;11.37;;
4375;SDS011;2202;50.866;12.750;2022-07-23T10:40:10;13.63;;;10.70;;
4375;SDS011;2202;50.866;12.750;2022-07-23T10:42:38;14.47;;;12.37;;
4375;SDS011;2202;50.866;12.750;2022-07-23T10:47:52;15.50;;;12.17;;
4375;SDS011;2202;50.866;12.750;2022-07-23T10:50:20;16.60;;;12.33;;
4375;SDS011;2202;50.866;12.750;2022-07-23T10:55:44;14.93;;;12.10;;
4375;SDS011;2202;50.866;12.750;2022-07-23T10:58:17;15.40;;;12.40;;
4375;SDS011;2202;50.866;12.750;2022-07-23T11:00:45;13.87;;;11.87;;
4375;SDS011;2202;50.866;12.750;2022-07-23T11:03:28;14.60;;;11.77;;
4375;SDS011;2202;50.866;12.750;2022-07-23T11:06:01;13.97;;;11.40;;
4375;SDS011;2202;50.866;12.750;2022-07-23T11:08:29;17.10;;;11.87;;
4375;SDS011;2202;50.866;12.750;2022-07-23T11:11:08;16.80;;;12.30;;
4375;SDS011;2202;50.866;12.750;2022-07-23T11:13:40;14.00;;;10.87;;
4375;SDS011;2202;50.866;12.750;2022-07-23T11:16:21;16.80;;;12.37;;
4375;SDS011;2202;50.866;12.750;2022-07-23T11:21:45;18.07;;;13.73;;
4375;SDS011;2202;50.866;12.750;2022-07-23T11:24:14;18.30;;;15.40;;
4375;SDS011;2202;50.866;12.750;2022-07-23T11:26:46;17.23;;;14.40;;
4375;SDS011;2202;50.866;12.750;2022-07-23T11:32:24;21.50;;;14.87;;
4375;SDS011;2202;50.866;12.750;2022-07-23T11:34:54;16.70;;;13.90;;
4375;SDS011;2202;50.866;12.750;2022-07-23T11:37:27;18.60;;;13.90;;
4375;SDS011;2202;50.866;12.750;2022-07-23T11:40:06;20.10;;;14.57;;
4375;SDS011;2202;50.866;12.750;2022-07-23T11:42:37;19.97;;;15.20;;
4375;SDS011;2202;50.866;12.750;2022-07-23T11:45:06;18.77;;;15.50;;
4375;SDS011;2202;50.866;12.750;2022-07-23T11:47:34;15.67;;;12.60;;
4375;SDS011;2202;50.866;12.750;2022-07-23T11:50:03;16.93;;;13.17;;
4375;SDS011;2202;50.866;12.750;2022-07-23T11:52:32;18.87;;;14.30;;
4375;SDS011;2202;50.866;12.750;2022-07-23T11:54:59;17.87;;;14.40;;
4375;SDS011;2202;50.866;12.750;2022-07-23T11:57:30;16.93;;;14.50;;
4375;SDS011;2202;50.866;12.750;2022-07-23T12:00:03;15.47;;;13.53;;
4375;SDS011;2202;50.866;12.750;2022-07-23T12:02:33;16.50;;;14.70;;
4375;SDS011;2202;50.866;12.750;2022-07-23T12:05:00;19.50;;;16.70;;
4375;SDS011;2202;50.866;12.750;2022-07-23T12:07:28;17.83;;;14.70;;
4375;SDS011;2202;50.866;12.750;2022-07-23T12:09:59;18.93;;;15.57;;
4375;SDS011;2202;50.866;12.750;2022-07-23T12:12:27;18.23;;;16.37;;
4375;SDS011;2202;50.866;12.750;2022-07-23T12:15:02;16.60;;;14.80;;
4375;SDS011;2202;50.866;12.750;2022-07-23T12:17:32;23.23;;;14.33;;
4375;SDS011;2202;50.866;12.750;2022-07-23T12:20:00;15.60;;;13.73;;
4375;SDS011;2202;50.866;12.750;2022-07-23T12:22:33;16.90;;;13.70;;
4375;SDS011;2202;50.866;12.750;2022-07-23T12:25:03;16.57;;;14.17;;
4375;SDS011;2202;50.866;12.750;2022-07-23T12:27:32;19.40;;;14.33;;
4375;SDS011;2202;50.866;12.750;2022-07-23T12:32:54;15.10;;;13.37;;
4375;SDS011;2202;50.866;12.750;2022-07-23T12:35:22;17.63;;;14.67;;
4375;SDS011;2202;50.866;12.750;2022-07-23T12:37:59;15.33;;;13.83;;
4375;SDS011;2202;50.866;12.750;2022-07-23T12:40:28;17.03;;;14.90;;
4375;SDS011;2202;50.866;12.750;2022-07-23T12:42:58;16.60;;;14.67;;
4375;SDS011;2202;50.866;12.750;2022-07-23T12:45:27;17.90;;;15.97;;
4375;SDS011;2202;50.866;12.750;2022-07-23T12:48:00;16.13;;;14.13;;
4375;SDS011;2202;50.866;12.750;2022-07-23T12:53:18;18.30;;;14.50;;
4375;SDS011;2202;50.866;12.750;2022-07-23T12:55:47;16.53;;;14.73;;
4375;SDS011;2202;50.866;12.750;2022-07-23T12:58:15;17.03;;;14.67;;
4375;SDS011;2202;50.866;12.750;2022-07-23T13:00:59;16.60;;;14.10;;
4375;SDS011;2202;50.866;12.750;2022-07-23T13:03:31;16.53;;;14.83;;
4375;SDS011;2202;50.866;12.750;2022-07-23T13:06:03;14.90;;;13.30;;
4375;SDS011;2202;50.866;12.750;2022-07-23T13:08:32;14.80;;;13.30;;
4375;SDS011;2202;50.866;12.750;2022-07-23T13:11:00;20.30;;;15.50;;
4375;SDS011;2202;50.866;12.750;2022-07-23T13:13:28;15.10;;;13.70;;
4375;SDS011;2202;50.866;12.750;2022-07-23T13:15:57;21.80;;;14.17;;
4375;SDS011;2202;50.866;12.750;2022-07-23T13:18:24;17.90;;;14.90;;
4375;SDS011;2202;50.866;12.750;2022-07-23T13:20:54;14.63;;;13.13;;
4375;SDS011;2202;50.866;12.750;2022-07-23T13:23:21;16.53;;;14.80;;
4375;SDS011;2202;50.866;12.750;2022-07-23T13:25:48;16.00;;;13.93;;
4375;SDS011;2202;50.866;12.750;2022-07-23T13:28:16;16.83;;;14.03;;
4375;SDS011;2202;50.866;12.750;2022-07-23T13:30:44;17.53;;;15.83;;
4375;SDS011;2202;50.866;12.750;2022-07-23T13:33:12;15.80;;;13.67;;
4375;SDS011;2202;50.866;12.750;2022-07-23T13:35:39;14.30;;;12.80;;
4375;SDS011;2202;50.866;12.750;2022-07-23T13:38:07;15.83;;;12.87;;
4375;SDS011;2202;50.866;12.750;2022-07-23T13:40:35;17.93;;;16.03;;
4375;SDS011;2202;50.866;12.750;2022-07-23T13:43:05;17.33;;;15.23;;
4375;SDS011;2202;50.866;12.750;2022-07-23T13:45:32;14.90;;;13.30;;
4375;SDS011;2202;50.866;12.750;2022-07-23T13:48:00;16.57;;;13.87;;
4375;SDS011;2202;50.866;12.750;2022-07-23T13:50:27;16.03;;;13.47;;
4375;SDS011;2202;50.866;12.750;2022-07-23T13:52:54;16.87;;;14.10;;
4375;SDS011;2202;50.866;12.750;2022-07-23T13:55:22;15.87;;;14.00;;
4375;SDS011;2202;50.866;12.750;2022-07-23T13:57:49;15.80;;;13.50;;
4375;SDS011;2202;50.866;12.750;2022-07-23T14:00:16;16.93;;;14.60;;
4375;SDS011;2202;50.866;12.750;2022-07-23T14:02:43;18.90;;;16.00;;
4375;SDS011;2202;50.866;12.750;2022-07-23T14:05:10;16.57;;;14.60;;
4375;SDS011;2202;50.866;12.750;2022-07-23T14:07:37;19.03;;;17.17;;
4375;SDS011;2202;50.866;12.750;2022-07-23T14:10:08;17.50;;;14.80;;
4375;SDS011;2202;50.866;12.750;2022-07-23T14:12:37;19.37;;;17.43;;
4375;SDS011;2202;50.866;12.750;2022-07-23T14:15:04;22.00;;;18.73;;
4375;SDS011;2202;50.866;12.750;2022-07-23T14:17:33;22.17;;;19.60;;
4375;SDS011;2202;50.866;12.750;2022-07-23T14:20:00;27.03;;;17.53;;
4375;SDS011;2202;50.866;12.750;2022-07-23T14:22:27;22.53;;;20.10;;
4375;SDS011;2202;50.866;12.750;2022-07-23T14:24:54;21.10;;;17.87;;
4375;SDS011;2202;50.866;12.750;2022-07-23T14:27:22;21.17;;;18.83;;
4375;SDS011;2202;50.866;12.750;2022-07-23T14:29:51;22.37;;;20.07;;
4375;SDS011;2202;50.866;12.750;2022-07-23T14:32:18;24.00;;;20.10;;
4375;SDS011;2202;50.866;12.750;2022-07-23T14:34:45;24.07;;;20.40;;
4375;SDS011;2202;50.866;12.750;2022-07-23T14:37:11;24.30;;;20.80;;
4375;SDS011;2202;50.866;12.750;2022-07-23T14:39:39;21.50;;;19.30;;
4375;SDS011;2202;50.866;12.750;2022-07-23T14:42:06;19.63;;;17.60;;
4375;SDS011;2202;50.866;12.750;2022-07-23T14:44:34;21.53;;;19.23;;
4375;SDS011;2202;50.866;12.750;2022-07-23T14:47:03;24.13;;;18.60;;
4375;SDS011;2202;50.866;12.750;2022-07-23T14:49:31;18.60;;;16.63;;
4375;SDS011;2202;50.866;12.750;2022-07-23T14:51:58;23.90;;;19.27;;
4375;SDS011;2202;50.866;12.750;2022-07-23T14:54:26;22.63;;;19.73;;
4375;SDS011;2202;50.866;12.750;2022-07-23T14:56:54;20.97;;;18.77;;
4375;SDS011;2202;50.866;12.750;2022-07-23T14:59:22;24.90;;;21.10;;
4375;SDS011;2202;50.866;12.750;2022-07-23T15:01:49;22.00;;;19.70;;
4375;SDS011;2202;50.866;12.750;2022-07-23T15:04:18;21.63;;;19.33;;
4375;SDS011;2202;50.866;12.750;2022-07-23T15:06:45;22.30;;;19.13;;